Time;durP1;ratioP1;P1;durP2;ratioP2;P2;SDS_P1;SDS_P2;PMS_P1;PMS_P2;Temp;Humidity;BMP_temperature;BMP_pressure;BME280_temperature;BME280_humidity;BME280_pressure;Samples;Min_cycle;Max_cycle;Signal;HPM_P1;HPM_P2
2024/02/11 00:01:08;;;;;;;27.33;19.50;;;16.20;63.20;;;;;;5053154;28;20189;-59
2024/02/11 00:03:37;;;;;;;28.33;19.73;;;16.10;63.20;;;;;;5053374;28;20187;-59
2024/02/11 00:06:04;;;;;;;27.17;20.35;;;16.10;63.20;;;;;;5053635;28;20206;-59
2024/02/11 00:08:30;;;;;;;26.70;19.42;;;16.10;63.10;;;;;;5052486;28;20191;-60
2024/02/11 00:10:55;;;;;;;26.45;18.77;;;16.10;63.20;;;;;;5053239;28;20167;-60
2024/02/11 00:13:21;;;;;;;28.80;20.30;;;16.10;63.20;;;;;;5052218;28;20179;-60
2024/02/11 00:15:47;;;;;;;25.02;18.05;;;16.10;63.20;;;;;;5050965;28;20179;-60
2024/02/11 00:18:12;;;;;;;27.48;19.38;;;16.10;63.20;;;;;;5053316;28;20214;-60
2024/02/11 00:20:38;;;;;;;26.08;18.17;;;16.10;63.10;;;;;;5052898;28;20624;-60
2024/02/11 00:23:04;;;;;;;25.15;18.75;;;16.10;63.20;;;;;;5052577;28;20183;-60
2024/02/11 00:25:30;;;;;;;24.77;18.80;;;16.10;63.20;;;;;;5052975;28;20244;-59
2024/02/11 00:27:58;;;;;;;24.95;19.42;;;16.10;63.10;;;;;;5053177;28;20622;-59
2024/02/11 00:30:24;;;;;;;24.27;17.75;;;16.10;63.30;;;;;;5052170;28;20179;-59
2024/02/11 00:32:56;;;;;;;23.45;17.58;;;16.10;63.20;;;;;;5052925;28;20637;-59
2024/02/11 00:35:25;;;;;;;22.27;16.75;;;16.10;63.10;;;;;;5052676;28;20179;-59
2024/02/11 00:37:50;;;;;;;24.45;17.70;;;16.10;63.20;;;;;;5052201;28;20316;-59
2024/02/11 00:40:16;;;;;;;25.27;18.10;;;16.10;63.20;;;;;;5052920;28;20654;-58
2024/02/11 00:42:44;;;;;;;24.40;18.30;;;16.10;63.20;;;;;;5052041;28;20649;-59
2024/02/11 00:45:12;;;;;;;22.73;17.48;;;16.10;63.20;;;;;;5052937;28;20197;-58
2024/02/11 00:47:40;;;;;;;22.08;16.40;;;16.10;63.20;;;;;;5052534;28;20190;-59
2024/02/11 00:50:06;;;;;;;23.58;17.58;;;16.10;63.20;;;;;;5051985;28;20179;-58
2024/02/11 00:52:35;;;;;;;23.65;16.77;;;16.10;63.20;;;;;;5052419;28;20215;-59
2024/02/11 00:55:00;;;;;;;21.83;17.05;;;16.10;63.20;;;;;;5052782;28;20250;-59
2024/02/11 00:57:26;;;;;;;23.20;16.55;;;16.10;63.20;;;;;;5051709;28;20293;-59
2024/02/11 00:59:51;;;;;;;22.52;16.58;;;16.10;63.20;;;;;;5052417;28;20262;-58
2024/02/11 01:02:17;;;;;;;21.58;16.58;;;16.10;63.20;;;;;;5052096;28;20178;-57
2024/02/11 01:04:43;;;;;;;22.85;17.25;;;16.10;63.20;;;;;;5051328;28;20191;-59
2024/02/11 01:07:08;;;;;;;22.10;16.27;;;16.10;63.20;;;;;;5052453;28;20167;-59
2024/02/11 01:09:34;;;;;;;22.77;16.00;;;16.10;63.20;;;;;;5052073;28;20634;-59
2024/02/11 01:12:00;;;;;;;21.02;15.88;;;16.10;63.20;;;;;;5051564;28;20224;-59
2024/02/11 01:14:25;;;;;;;22.02;15.55;;;16.10;63.20;;;;;;5051934;28;20534;-58
2024/02/11 01:16:51;;;;;;;21.23;15.45;;;16.10;63.20;;;;;;5052175;28;20171;-58
2024/02/11 01:19:16;;;;;;;21.17;14.93;;;16.10;63.30;;;;;;5051367;28;20266;-57
2024/02/11 01:21:44;;;;;;;20.38;15.63;;;16.10;63.30;;;;;;5052106;28;20182;-58
2024/02/11 01:24:10;;;;;;;19.75;15.15;;;16.10;63.20;;;;;;5052346;28;20191;-58
2024/02/11 01:26:36;;;;;;;20.13;15.70;;;16.00;63.20;;;;;;5051089;28;20179;-59
2024/02/11 01:29:05;;;;;;;20.70;15.45;;;16.00;63.20;;;;;;5052163;28;20179;-60
2024/02/11 01:31:31;;;;;;;19.85;14.52;;;16.00;63.20;;;;;;5051727;28;20637;-58
2024/02/11 01:33:56;;;;;;;21.58;15.38;;;16.00;63.20;;;;;;5051335;28;20194;-59
2024/02/11 01:36:22;;;;;;;19.98;14.77;;;16.00;63.20;;;;;;5051726;28;20642;-58
2024/02/11 01:38:47;;;;;;;19.90;15.15;;;16.00;63.20;;;;;;5051873;28;20297;-61
2024/02/11 01:41:13;;;;;;;20.17;15.30;;;16.00;63.30;;;;;;5051576;28;20707;-61
2024/02/11 01:43:39;;;;;;;19.23;14.70;;;16.00;63.30;;;;;;5051716;28;20215;-61
2024/02/11 01:46:04;;;;;;;19.67;14.77;;;16.00;63.30;;;;;;5051233;28;20206;-60
2024/02/11 01:48:30;;;;;;;22.48;14.75;;;16.00;63.30;;;;;;5051332;28;20240;-60
2024/02/11 01:50:56;;;;;;;18.65;13.82;;;16.00;63.30;;;;;;5050696;28;20221;-60
2024/02/11 01:53:21;;;;;;;21.35;15.07;;;16.00;63.30;;;;;;5049584;28;20179;-60
2024/02/11 01:55:47;;;;;;;19.80;14.93;;;16.00;63.30;;;;;;5051758;28;20177;-59
2024/02/11 01:58:14;;;;;;;20.13;14.63;;;16.00;63.30;;;;;;5050480;28;20245;-60
2024/02/11 02:00:40;;;;;;;15.93;13.40;;;16.00;63.40;;;;;;5050769;28;20179;-60
2024/02/11 02:03:06;;;;;;;18.90;13.75;;;16.00;63.30;;;;;;5050581;28;20186;-60
2024/02/11 02:05:32;;;;;;;19.23;13.63;;;16.00;63.30;;;;;;5050457;28;20179;-60
2024/02/11 02:07:59;;;;;;;19.98;13.88;;;16.00;63.40;;;;;;5050870;28;20652;-60
2024/02/11 02:10:24;;;;;;;18.80;13.80;;;16.00;63.40;;;;;;5050146;28;20189;-60
2024/02/11 02:12:50;;;;;;;16.05;12.88;;;16.00;63.40;;;;;;5050436;28;20639;-61
2024/02/11 02:15:16;;;;;;;18.92;13.90;;;16.00;63.60;;;;;;5050707;28;20171;-60
2024/02/11 02:17:45;;;;;;;15.05;12.07;;;16.00;63.40;;;;;;5049784;28;20245;-61
2024/02/11 02:20:11;;;;;;;16.27;12.73;;;15.90;63.30;;;;;;5051521;28;20254;-60
2024/02/11 02:22:36;;;;;;;19.52;13.27;;;16.00;63.40;;;;;;5050762;28;20273;-60
2024/02/11 02:25:02;;;;;;;18.95;13.57;;;15.90;63.40;;;;;;5051655;28;20238;-60
2024/02/11 02:27:28;;;;;;;16.70;12.52;;;15.90;63.30;;;;;;5051250;28;20202;-60
2024/02/11 02:29:53;;;;;;;16.98;12.77;;;16.00;63.40;;;;;;5050872;28;20209;-61
2024/02/11 02:32:19;;;;;;;15.88;12.07;;;15.90;63.40;;;;;;5051097;28;20696;-60
2024/02/11 02:34:46;;;;;;;16.90;12.35;;;15.90;63.30;;;;;;5051668;28;20685;-60
2024/02/11 02:37:12;;;;;;;15.98;11.95;;;16.00;63.40;;;;;;5050759;28;20262;-60
2024/02/11 02:39:37;;;;;;;16.42;12.70;;;16.00;63.40;;;;;;5052619;28;20269;-60
2024/02/11 02:42:04;;;;;;;16.40;12.65;;;15.90;63.40;;;;;;5055229;28;20172;-61
2024/02/11 02:44:30;;;;;;;17.17;12.85;;;15.90;63.40;;;;;;5054155;28;20204;-60
2024/02/11 02:46:56;;;;;;;18.13;13.27;;;15.90;63.40;;;;;;5055074;28;20656;-60
2024/02/11 02:49:22;;;;;;;14.68;11.38;;;15.90;63.40;;;;;;5053959;28;20183;-60
2024/02/11 02:51:47;;;;;;;17.45;12.23;;;15.90;63.40;;;;;;5055071;28;20178;-60
2024/02/11 02:54:14;;;;;;;16.95;11.57;;;15.90;63.40;;;;;;5055056;28;20182;-60
2024/02/11 02:56:39;;;;;;;15.93;11.77;;;15.90;63.40;;;;;;5053990;28;20179;-61
2024/02/11 02:59:08;;;;;;;15.90;12.18;;;15.90;63.40;;;;;;5054499;28;20234;-59
2024/02/11 03:01:34;;;;;;;16.23;12.35;;;15.90;63.40;;;;;;5054440;28;20582;-59
2024/02/11 03:04:01;;;;;;;15.32;11.52;;;15.90;63.40;;;;;;5054208;28;20183;-60
2024/02/11 03:06:27;;;;;;;15.25;11.35;;;15.90;63.40;;;;;;5054548;28;20252;-60
2024/02/11 03:08:53;;;;;;;14.68;11.10;;;15.90;63.40;;;;;;5054656;28;20175;-60
2024/02/11 03:11:18;;;;;;;14.65;11.20;;;15.90;63.40;;;;;;5053775;28;20262;-60
2024/02/11 03:13:44;;;;;;;15.02;10.98;;;15.90;63.40;;;;;;5054550;28;20266;-61
2024/02/11 03:16:10;;;;;;;13.80;10.65;;;15.90;63.50;;;;;;5054445;28;20178;-59
2024/02/11 03:18:36;;;;;;;15.40;11.50;;;15.90;63.50;;;;;;5053586;28;20210;-60
2024/02/11 03:21:02;;;;;;;15.68;11.32;;;15.90;63.40;;;;;;5054473;28;20217;-60
2024/02/11 03:23:27;;;;;;;13.57;10.90;;;15.90;63.40;;;;;;5054084;28;20175;-60
2024/02/11 03:25:53;;;;;;;14.30;10.85;;;15.90;63.40;;;;;;5053599;28;20654;-60
2024/02/11 03:28:18;;;;;;;13.88;10.32;;;15.90;63.40;;;;;;5053927;28;20171;-60
2024/02/11 03:30:44;;;;;;;14.63;10.88;;;15.90;63.40;;;;;;5054218;28;20171;-61
2024/02/11 03:33:10;;;;;;;14.88;11.60;;;15.90;63.40;;;;;;5053536;28;20221;-59
2024/02/11 03:35:35;;;;;;;14.07;10.80;;;15.90;63.50;;;;;;5053839;28;20217;-60
2024/02/11 03:38:01;;;;;;;14.25;11.07;;;15.90;63.40;;;;;;5054192;28;20317;-60
2024/02/11 03:40:27;;;;;;;14.73;10.98;;;15.80;63.30;;;;;;5053188;28;20660;-60
2024/02/11 03:42:53;;;;;;;14.50;10.80;;;15.80;63.30;;;;;;5054046;28;20207;-60
2024/02/11 03:45:19;;;;;;;13.45;10.07;;;15.90;63.40;;;;;;5053617;28;20618;-60
2024/02/11 03:47:44;;;;;;;14.70;10.57;;;15.80;63.30;;;;;;5053445;28;20206;-60
2024/02/11 03:50:10;;;;;;;13.18;10.50;;;15.80;63.40;;;;;;5053945;28;20673;-60
2024/02/11 03:52:36;;;;;;;13.73;10.63;;;15.80;63.30;;;;;;5052792;28;20585;-61
2024/02/11 03:55:05;;;;;;;13.95;10.32;;;15.80;63.40;;;;;;5053848;28;20183;-60
2024/02/11 03:57:30;;;;;;;13.15;10.00;;;15.90;63.50;;;;;;5053224;28;20234;-60
2024/02/11 03:59:56;;;;;;;13.82;10.20;;;15.90;63.40;;;;;;5053284;28;20237;-60
2024/02/11 04:02:21;;;;;;;11.75;9.35;;;15.80;63.40;;;;;;5053554;28;20175;-59
2024/02/11 04:04:49;;;;;;;12.65;10.05;;;15.80;63.40;;;;;;5053727;28;20171;-60
2024/02/11 04:07:15;;;;;;;13.27;10.18;;;15.90;63.50;;;;;;5053190;28;20236;-60
2024/02/11 04:09:41;;;;;;;12.50;10.18;;;15.80;63.40;;;;;;5053244;28;20175;-60
2024/02/11 04:12:10;;;;;;;12.07;10.07;;;15.80;63.40;;;;;;5053431;28;20167;-61
2024/02/11 04:14:36;;;;;;;12.23;9.93;;;15.80;63.40;;;;;;5052626;28;20179;-60
2024/02/11 04:17:03;;;;;;;12.48;9.73;;;15.90;63.50;;;;;;5053452;28;20190;-61
2024/02/11 04:19:32;;;;;;;12.98;10.20;;;15.80;63.40;;;;;;5053252;28;20582;-60
2024/02/11 04:21:58;;;;;;;13.15;9.70;;;15.80;63.40;;;;;;5052704;28;20634;-60
2024/02/11 04:24:28;;;;;;;12.85;10.10;;;15.80;63.40;;;;;;5052903;28;20550;-60
2024/02/11 04:26:57;;;;;;;11.70;8.65;;;15.80;63.40;;;;;;5053088;28;20557;-60
2024/02/11 04:29:23;;;;;;;13.10;9.90;;;15.80;63.40;;;;;;5052321;28;20267;-58
2024/02/11 04:31:51;;;;;;;10.40;8.60;;;15.80;64.30;;;;;;5052968;28;20641;-59
2024/02/11 04:34:17;;;;;;;12.85;9.25;;;15.80;63.40;;;;;;5053048;28;20262;-58
2024/02/11 04:36:43;;;;;;;14.10;9.73;;;15.80;63.40;;;;;;5052178;28;20717;-59
2024/02/11 04:39:09;;;;;;;12.82;9.85;;;15.80;63.40;;;;;;5052903;28;20225;-59
2024/02/11 04:41:36;;;;;;;10.77;8.68;;;15.80;63.40;;;;;;5052648;28;20171;-60
2024/02/11 04:44:03;;;;;;;11.30;9.00;;;15.80;63.50;;;;;;5052303;28;20274;-59
2024/02/11 04:46:29;;;;;;;10.45;8.93;;;15.80;63.50;;;;;;5052634;28;20183;-60
2024/02/11 04:48:56;;;;;;;10.75;8.35;;;15.70;63.40;;;;;;5052183;28;20252;-59
2024/02/11 04:51:22;;;;;;;11.15;9.18;;;15.70;63.40;;;;;;5052427;28;20626;-58
2024/02/11 04:53:48;;;;;;;12.60;9.57;;;15.80;63.40;;;;;;5051469;28;20259;-58
2024/02/11 04:56:16;;;;;;;10.48;8.15;;;15.80;63.50;;;;;;5051886;28;20266;-58
2024/02/11 04:58:41;;;;;;;12.35;8.93;;;15.80;63.50;;;;;;5052334;28;20278;-59
2024/02/11 05:01:08;;;;;;;10.68;8.70;;;15.80;63.50;;;;;;5052710;28;20175;-59
2024/02/11 05:03:34;;;;;;;11.38;8.63;;;15.70;63.40;;;;;;5050849;28;20183;-58
2024/02/11 05:06:00;;;;;;;13.20;9.20;;;15.80;63.40;;;;;;5052333;28;20290;-59
2024/02/11 05:08:27;;;;;;;10.65;8.23;;;15.80;63.50;;;;;;5051936;28;20265;-59
2024/02/11 05:10:52;;;;;;;13.80;8.82;;;15.70;63.50;;;;;;5051451;28;20183;-60
2024/02/11 05:13:18;;;;;;;9.93;8.00;;;15.80;63.50;;;;;;5052180;28;20182;-59
2024/02/11 05:15:44;;;;;;;10.15;7.88;;;15.80;63.50;;;;;;5052388;28;20179;-59
2024/02/11 05:18:20;;;;;;;11.45;8.75;;;15.80;63.50;;;;;;5051438;28;20217;-59
2024/02/11 05:20:46;;;;;;;10.38;8.02;;;15.70;63.50;;;;;;5051918;28;20625;-59
2024/02/11 05:23:11;;;;;;;11.50;8.93;;;15.70;63.50;;;;;;5052091;28;20191;-59
2024/02/11 05:25:38;;;;;;;10.95;9.35;;;15.70;63.50;;;;;;5051027;28;20167;-58
2024/02/11 05:28:12;;;;;;;10.52;7.80;;;15.70;63.50;;;;;;5052220;28;20225;-59
2024/02/11 05:30:48;;;;;;;10.45;8.25;;;15.70;63.50;;;;;;5051639;28;20181;-59
2024/02/11 05:33:16;;;;;;;10.32;7.78;;;15.70;63.60;;;;;;5051113;28;20415;-58
2024/02/11 05:35:43;;;;;;;9.80;7.65;;;15.70;63.50;;;;;;5051583;28;20187;-58
2024/02/11 05:38:09;;;;;;;9.18;7.70;;;15.70;63.50;;;;;;5051248;28;20289;-58
2024/02/11 05:40:41;;;;;;;10.88;7.80;;;15.70;63.50;;;;;;5051880;28;20966;-58
2024/02/11 05:43:08;;;;;;;8.57;6.82;;;15.70;63.60;;;;;;5051895;28;20174;-58
2024/02/11 05:45:35;;;;;;;9.93;7.85;;;15.70;63.50;;;;;;5050753;28;20602;-58
2024/02/11 05:48:01;;;;;;;9.48;7.40;;;15.70;63.50;;;;;;5051720;28;20215;-58
2024/02/11 05:50:26;;;;;;;8.60;7.35;;;15.70;63.50;;;;;;5051621;28;20225;-58
2024/02/11 05:52:52;;;;;;;9.45;8.05;;;15.70;63.50;;;;;;5050951;28;20175;-59
2024/02/11 05:55:18;;;;;;;9.77;8.13;;;15.70;63.50;;;;;;5051597;28;20186;-58
2024/02/11 05:57:44;;;;;;;9.93;7.88;;;15.70;63.50;;;;;;5051519;28;20641;-59
2024/02/11 06:00:14;;;;;;;9.45;7.70;;;15.70;63.50;;;;;;5051149;28;20183;-59
2024/02/11 06:02:40;;;;;;;10.05;8.05;;;15.70;63.50;;;;;;5051067;28;20179;-58
2024/02/11 06:05:12;;;;;;;10.65;7.35;;;15.70;63.60;;;;;;5051884;28;20216;-58
2024/02/11 06:07:38;;;;;;;8.98;7.47;;;15.70;63.60;;;;;;5050984;28;20187;-58
2024/02/11 06:10:05;;;;;;;9.15;7.45;;;15.70;63.60;;;;;;5051816;28;20187;-60
2024/02/11 06:12:31;;;;;;;9.80;8.13;;;15.70;63.50;;;;;;5051624;28;20258;-58
2024/02/11 06:14:56;;;;;;;8.02;6.78;;;15.70;63.50;;;;;;5053453;28;20231;-59
2024/02/11 06:17:22;;;;;;;9.18;7.63;;;15.70;63.50;;;;;;5054127;28;20179;-58
2024/02/11 06:19:48;;;;;;;8.15;6.82;;;15.60;63.50;;;;;;5054437;28;20240;-59
2024/02/11 06:22:13;;;;;;;8.75;7.20;;;15.70;63.50;;;;;;5053704;28;20254;-58
2024/02/11 06:24:39;;;;;;;8.90;7.40;;;15.70;63.50;;;;;;5054183;28;20298;-59
2024/02/11 06:27:04;;;;;;;10.10;7.25;;;15.70;63.50;;;;;;5054692;28;20171;-58
2024/02/11 06:29:30;;;;;;;8.70;7.10;;;15.60;63.50;;;;;;5054389;28;20195;-58
2024/02/11 06:31:58;;;;;;;8.65;7.35;;;15.60;63.50;;;;;;5055317;28;20652;-59
2024/02/11 06:34:23;;;;;;;9.23;7.35;;;15.70;63.50;;;;;;5054456;28;20189;-58
2024/02/11 06:36:50;;;;;;;8.68;6.85;;;15.70;63.50;;;;;;5055437;28;20262;-59
2024/02/11 06:39:15;;;;;;;7.15;6.07;;;15.70;63.50;;;;;;5055261;28;20272;-58
2024/02/11 06:41:41;;;;;;;9.85;6.95;;;15.70;63.50;;;;;;5054193;28;20175;-59
2024/02/11 06:44:07;;;;;;;8.45;7.05;;;15.70;63.60;;;;;;5055020;28;20179;-58
2024/02/11 06:46:32;;;;;;;8.85;6.32;;;15.70;63.60;;;;;;5054760;28;20266;-58
2024/02/11 06:49:00;;;;;;;9.00;6.80;;;15.70;63.60;;;;;;5054336;28;20520;-58
2024/02/11 06:51:27;;;;;;;8.75;6.07;;;15.70;63.50;;;;;;5054803;28;20248;-58
2024/02/11 06:53:52;;;;;;;7.95;6.90;;;15.70;63.60;;;;;;5055123;28;20183;-59
2024/02/11 06:56:18;;;;;;;10.70;7.03;;;15.70;64.00;;;;;;5054063;28;20509;-58
2024/02/11 06:58:44;;;;;;;10.32;7.13;;;15.80;64.20;;;;;;5054529;28;20235;-59
2024/02/11 07:01:10;;;;;;;9.10;6.80;;;15.90;64.10;;;;;;5054465;28;20167;-58
2024/02/11 07:03:37;;;;;;;9.23;6.28;;;16.00;64.10;;;;;;5053995;28;20236;-59
2024/02/11 07:06:05;;;;;;;9.48;6.97;;;16.10;64.10;;;;;;5054867;28;20192;-59
2024/02/11 07:08:32;;;;;;;8.25;6.03;;;16.20;63.80;;;;;;5054278;28;20589;-60
2024/02/11 07:10:58;;;;;;;8.25;6.85;;;16.30;63.60;;;;;;5053991;28;20556;-59
2024/02/11 07:13:23;;;;;;;7.25;5.60;;;16.40;63.30;;;;;;5054191;28;20681;-59
2024/02/11 07:15:49;;;;;;;6.85;5.53;;;16.50;63.00;;;;;;5054703;28;20896;-59
2024/02/11 07:18:16;;;;;;;7.22;5.63;;;16.60;62.70;;;;;;5053880;28;20226;-59
2024/02/11 07:20:42;;;;;;;6.35;5.28;;;16.70;62.50;;;;;;5054329;28;20228;-59
2024/02/11 07:23:07;;;;;;;7.50;5.75;;;16.80;62.20;;;;;;5054486;28;20266;-59
2024/02/11 07:25:33;;;;;;;5.55;4.95;;;16.90;62.10;;;;;;5052949;28;20537;-58
2024/02/11 07:27:59;;;;;;;6.78;5.47;;;17.00;61.90;;;;;;5053991;28;20513;-58
2024/02/11 07:30:25;;;;;;;7.25;5.25;;;17.00;61.80;;;;;;5053774;28;20492;-59
2024/02/11 07:32:51;;;;;;;6.00;5.13;;;17.00;61.80;;;;;;5053629;28;20179;-59
2024/02/11 07:35:18;;;;;;;6.20;5.15;;;17.00;61.70;;;;;;5054105;28;20182;-59
2024/02/11 07:37:44;;;;;;;5.72;5.10;;;17.00;61.70;;;;;;5053248;28;20688;-59
2024/02/11 07:40:11;;;;;;;6.78;5.47;;;17.10;61.70;;;;;;5053357;28;20258;-59
2024/02/11 07:42:37;;;;;;;7.22;5.40;;;17.10;61.60;;;;;;5053683;28;20237;-59
2024/02/11 07:45:03;;;;;;;6.22;4.68;;;17.10;61.60;;;;;;5053482;28;20171;-58
2024/02/11 07:47:30;;;;;;;5.93;4.50;;;17.00;61.50;;;;;;5053723;28;20591;-59
2024/02/11 07:49:56;;;;;;;5.95;5.30;;;17.10;61.30;;;;;;5053784;28;20182;-59
2024/02/11 07:52:22;;;;;;;5.82;4.68;;;17.20;61.40;;;;;;5052882;28;20183;-59
2024/02/11 07:54:48;;;;;;;7.50;4.80;;;17.20;61.30;;;;;;5053845;28;20198;-59
2024/02/11 07:57:15;;;;;;;6.03;5.05;;;17.20;61.40;;;;;;5053578;28;20213;-58
2024/02/11 07:59:41;;;;;;;6.03;5.25;;;17.20;61.30;;;;;;5052593;28;20628;-58
2024/02/11 08:02:07;;;;;;;5.43;4.35;;;17.20;61.30;;;;;;5053846;28;20241;-58
2024/02/11 08:04:33;;;;;;;6.07;4.82;;;17.20;61.20;;;;;;5053092;28;20263;-58
2024/02/11 08:06:59;;;;;;;6.00;5.03;;;17.20;62.10;;;;;;5052957;28;20171;-59
2024/02/11 08:09:24;;;;;;;6.20;4.75;;;17.30;61.20;;;;;;5053227;28;20186;-59
2024/02/11 08:11:50;;;;;;;4.68;4.25;;;17.30;61.10;;;;;;5053302;28;20195;-60
2024/02/11 08:14:17;;;;;;;5.72;4.28;;;17.30;61.10;;;;;;5052975;28;20175;-59
2024/02/11 08:16:42;;;;;;;4.95;4.43;;;17.30;61.00;;;;;;5052980;28;20175;-59
2024/02/11 08:19:08;;;;;;;4.93;4.00;;;17.30;61.10;;;;;;5053217;28;20223;-59
2024/02/11 08:21:35;;;;;;;5.72;4.45;;;17.30;60.90;;;;;;5052304;28;20218;-59
2024/02/11 08:24:02;;;;;;;5.35;4.65;;;17.40;60.70;;;;;;5053360;28;20179;-59
2024/02/11 08:26:28;;;;;;;4.90;4.30;;;17.50;60.70;;;;;;5052945;28;20167;-60
2024/02/11 08:28:59;;;;;;;6.28;4.68;;;17.50;60.70;;;;;;5052656;28;20233;-60
2024/02/11 08:31:25;;;;;;;4.53;3.88;;;17.50;60.80;;;;;;5053031;28;20218;-59
2024/02/11 08:33:51;;;;;;;5.65;4.28;;;17.50;60.60;;;;;;5052479;28;20191;-59
2024/02/11 08:36:16;;;;;;;6.03;4.18;;;17.50;60.60;;;;;;5052516;28;20172;-59
2024/02/11 08:38:48;;;;;;;5.22;3.75;;;17.50;60.50;;;;;;5052410;28;20203;-59
2024/02/11 08:41:13;;;;;;;4.97;4.18;;;17.50;60.50;;;;;;5052303;28;20236;-59
2024/02/11 08:43:39;;;;;;;4.28;3.60;;;17.50;60.60;;;;;;5052681;28;20589;-59
2024/02/11 08:46:04;;;;;;;5.32;3.90;;;17.50;60.60;;;;;;5052783;28;20547;-58
2024/02/11 08:48:33;;;;;;;7.72;4.18;;;17.60;60.60;;;;;;5051806;28;20254;-59
2024/02/11 08:51:00;;;;;;;6.13;4.10;;;17.60;60.60;;;;;;5052567;28;20185;-59
2024/02/11 08:53:26;;;;;;;3.85;3.35;;;17.60;60.70;;;;;;5052341;28;20211;-59
2024/02/11 08:55:52;;;;;;;5.03;4.03;;;17.50;60.60;;;;;;5052138;28;20183;-59
2024/02/11 08:58:18;;;;;;;4.63;3.70;;;17.40;60.70;;;;;;5052282;28;20235;-59
2024/02/11 09:00:43;;;;;;;4.20;3.17;;;17.30;61.00;;;;;;5052577;28;20254;-59
2024/02/11 09:03:09;;;;;;;4.75;3.35;;;17.30;61.00;;;;;;5051823;28;20613;-59
2024/02/11 09:05:35;;;;;;;6.90;3.90;;;17.20;61.20;;;;;;5052185;28;20190;-59
2024/02/11 09:08:01;;;;;;;5.57;3.72;;;17.20;61.40;;;;;;5052456;28;20540;-59
2024/02/11 09:10:26;;;;;;;5.53;3.70;;;17.20;61.50;;;;;;5051657;28;20634;-59
2024/02/11 09:12:52;;;;;;;5.55;3.95;;;17.20;61.50;;;;;;5052402;28;20558;-60
2024/02/11 09:15:18;;;;;;;4.53;3.85;;;17.10;61.70;;;;;;5052064;28;20645;-59
2024/02/11 09:17:43;;;;;;;4.43;3.85;;;17.10;61.60;;;;;;5051424;28;20217;-60
2024/02/11 09:20:15;;;;;;;5.30;4.07;;;17.10;61.70;;;;;;5052112;28;20274;-59
2024/02/11 09:22:41;;;;;;;6.80;3.58;;;17.00;61.70;;;;;;5051912;28;20167;-59
2024/02/11 09:25:08;;;;;;;4.35;3.40;;;17.00;61.70;;;;;;5051682;28;20178;-59
2024/02/11 09:27:33;;;;;;;4.53;3.67;;;17.00;61.70;;;;;;5051595;28;20795;-59
2024/02/11 09:29:59;;;;;;;4.88;3.50;;;16.90;61.90;;;;;;5052241;28;20187;-58
2024/02/11 09:32:25;;;;;;;4.60;3.42;;;16.90;61.90;;;;;;5051208;28;20211;-59
2024/02/11 09:34:51;;;;;;;6.97;3.92;;;16.90;62.00;;;;;;5052030;28;20619;-59
2024/02/11 09:37:17;;;;;;;4.60;3.53;;;16.90;62.10;;;;;;5050982;28;20665;-58
2024/02/11 09:39:43;;;;;;;5.22;3.50;;;16.90;62.90;;;;;;5052043;28;20183;-59
2024/02/11 09:42:16;;;;;;;5.45;3.90;;;16.90;62.00;;;;;;5052209;28;20630;-59
2024/02/11 09:44:43;;;;;;;3.97;3.17;;;16.90;61.90;;;;;;5033467;28;20179;-59
2024/02/11 09:47:08;;;;;;;3.70;3.30;;;16.90;61.90;;;;;;5051561;28;20528;-59
2024/02/11 09:49:34;;;;;;;5.07;3.53;;;16.90;62.00;;;;;;5051355;28;20254;-59
2024/02/11 09:52:00;;;;;;;5.47;3.75;;;16.90;62.00;;;;;;5033286;28;20269;-59
2024/02/11 09:54:28;;;;;;;4.15;3.25;;;16.80;62.00;;;;;;5051643;28;20175;-59
2024/02/11 09:56:54;;;;;;;4.90;3.60;;;16.80;62.10;;;;;;5051937;28;20203;-59
2024/02/11 09:59:19;;;;;;;3.88;3.40;;;16.80;62.10;;;;;;5050610;28;20288;-58
2024/02/11 10:01:45;;;;;;;3.95;3.13;;;16.70;62.10;;;;;;5051805;28;20541;-58
2024/02/11 10:04:11;;;;;;;3.63;3.33;;;16.80;62.20;;;;;;5050471;28;20257;-58
2024/02/11 10:06:41;;;;;;;3.83;3.30;;;16.80;62.10;;;;;;5049773;28;20185;-60
2024/02/11 10:09:10;;;;;;;4.40;3.50;;;16.80;62.20;;;;;;5051862;28;20179;-59
2024/02/11 10:11:40;;;;;;;4.30;3.50;;;16.80;62.10;;;;;;5051416;28;20507;-59
2024/02/11 10:14:13;;;;;;;5.05;3.20;;;16.80;62.40;;;;;;5049836;28;20573;-59
2024/02/11 10:16:39;;;;;;;4.00;3.28;;;16.80;62.10;;;;;;5051414;28;20197;-60
2024/02/11 10:19:05;;;;;;;4.68;3.40;;;16.70;62.00;;;;;;5051756;28;20701;-58
2024/02/11 10:21:31;;;;;;;4.95;3.13;;;16.80;62.10;;;;;;5050546;28;20642;-59
2024/02/11 10:23:57;;;;;;;4.53;3.45;;;16.70;62.10;;;;;;5051649;28;20186;-59
2024/02/11 10:26:22;;;;;;;4.32;3.40;;;16.70;62.10;;;;;;5050531;28;20182;-58
2024/02/11 10:28:48;;;;;;;4.25;3.30;;;16.70;62.20;;;;;;5051593;28;20171;-59
2024/02/11 10:31:13;;;;;;;3.80;3.10;;;16.60;62.20;;;;;;5051514;28;20634;-58
2024/02/11 10:33:39;;;;;;;3.72;3.03;;;16.60;62.20;;;;;;5049960;28;20439;-60
2024/02/11 10:36:06;;;;;;;4.07;3.67;;;16.60;62.20;;;;;;5051270;28;20258;-59
2024/02/11 10:38:32;;;;;;;4.03;3.10;;;16.70;62.20;;;;;;5051200;28;20218;-59
2024/02/11 10:40:58;;;;;;;3.45;3.15;;;16.70;62.30;;;;;;5050426;28;20266;-59
2024/02/11 10:43:26;;;;;;;4.72;3.53;;;16.70;62.30;;;;;;5050768;28;20254;-59
2024/02/11 10:45:52;;;;;;;5.28;3.50;;;16.70;62.10;;;;;;5050759;28;20241;-60
2024/02/11 10:48:19;;;;;;;3.67;3.17;;;16.70;62.00;;;;;;5050417;28;20634;-59
2024/02/11 10:50:47;;;;;;;5.07;3.55;;;16.70;62.10;;;;;;5051571;28;20213;-59
2024/02/11 10:53:13;;;;;;;4.53;3.80;;;16.70;62.00;;;;;;5033793;28;20183;-59
2024/02/11 10:55:40;;;;;;;5.13;3.63;;;16.70;62.00;;;;;;5032688;28;20254;-59
2024/02/11 10:58:07;;;;;;;5.88;3.67;;;16.70;62.10;;;;;;5051023;28;20230;-60
2024/02/11 11:00:34;;;;;;;5.88;3.72;;;16.70;62.20;;;;;;5051078;28;20178;-59
2024/02/11 11:03:04;;;;;;;4.63;3.53;;;16.70;62.40;;;;;;5054281;28;20187;-59
2024/02/11 11:05:32;;;;;;;5.38;3.95;;;16.60;62.20;;;;;;5053391;28;20226;-64
2024/02/11 11:07:58;;;;;;;5.40;3.45;;;16.60;62.50;;;;;;5053622;28;20237;-63
2024/02/11 11:10:28;;;;;;;4.75;3.92;;;16.60;62.60;;;;;;5052259;28;20171;-62
2024/02/11 11:12:55;;;;;;;9.40;4.70;;;16.70;64.00;;;;;;5053053;28;20232;-64
2024/02/11 11:15:27;;;;;;;5.32;3.85;;;16.70;64.10;;;;;;5054428;28;20175;-64
2024/02/11 11:17:53;;;;;;;6.97;4.90;;;16.70;63.40;;;;;;5053822;28;20210;-64
2024/02/11 11:20:19;;;;;;;9.30;4.90;;;16.70;63.30;;;;;;5054119;28;20313;-63
2024/02/11 11:22:55;;;;;;;8.38;4.72;;;16.70;63.40;;;;;;5053687;28;20198;-63
2024/02/11 11:25:24;;;;;;;10.68;5.13;;;16.70;63.60;;;;;;5054045;28;20545;-63
2024/02/11 11:27:50;;;;;;;5.88;5.03;;;16.70;64.00;;;;;;5054172;28;20175;-63
2024/02/11 11:30:15;;;;;;;8.20;4.57;;;16.70;64.20;;;;;;5053478;28;20183;-62
2024/02/11 11:32:45;;;;;;;6.30;4.60;;;16.80;64.50;;;;;;5054083;28;20180;-61
2024/02/11 11:35:15;;;;;;;7.25;4.50;;;16.80;64.30;;;;;;5054270;28;20171;-63
2024/02/11 11:37:41;;;;;;;9.52;5.22;;;16.80;64.60;;;;;;5052431;28;20753;-64
2024/02/11 11:40:08;;;;;;;6.03;4.88;;;16.80;64.40;;;;;;5052857;28;20250;-64
2024/02/11 11:42:34;;;;;;;7.32;4.63;;;16.70;64.40;;;;;;5053969;28;20182;-64
2024/02/11 11:45:12;;;;;;;7.18;4.80;;;16.80;64.50;;;;;;5053550;28;20182;-64
2024/02/11 11:47:38;;;;;;;6.72;4.55;;;16.80;64.50;;;;;;5053547;28;20520;-64
2024/02/11 11:50:08;;;;;;;8.43;4.53;;;16.80;65.40;;;;;;5054060;28;20175;-63
2024/02/11 11:52:34;;;;;;;7.80;4.20;;;16.80;64.60;;;;;;5052545;28;20274;-64
2024/02/11 11:55:04;;;;;;;6.88;4.60;;;16.80;64.50;;;;;;5053904;28;20306;-62
2024/02/11 11:57:33;;;;;;;4.35;3.95;;;16.80;64.70;;;;;;5053496;28;20183;-63
2024/02/11 11:59:59;;;;;;;9.40;4.60;;;16.80;64.90;;;;;;5051849;28;20205;-63
2024/02/11 12:02:26;;;;;;;7.93;4.53;;;16.70;64.30;;;;;;5053411;28;20179;-62
2024/02/11 12:04:52;;;;;;;9.65;5.15;;;16.70;64.30;;;;;;5052874;28;20182;-62
2024/02/11 12:07:18;;;;;;;8.80;4.82;;;16.70;64.60;;;;;;5053143;28;20229;-62
2024/02/11 12:09:44;;;;;;;9.40;4.53;;;16.70;64.40;;;;;;5053713;28;20186;-62
2024/02/11 12:12:10;;;;;;;7.78;4.30;;;16.70;64.40;;;;;;5051896;28;20202;-62
2024/02/11 12:14:38;;;;;;;8.23;4.47;;;16.70;65.20;;;;;;5053042;28;20207;-61
2024/02/11 12:17:04;;;;;;;9.00;4.47;;;16.70;64.30;;;;;;5053509;28;20236;-62
2024/02/11 12:19:38;;;;;;;4.97;4.00;;;16.70;64.50;;;;;;5052120;28;20215;-61
2024/02/11 12:22:07;;;;;;;5.63;4.28;;;16.70;64.50;;;;;;5053361;28;20225;-62
2024/02/11 12:24:38;;;;;;;6.22;4.03;;;16.70;64.50;;;;;;5053006;28;20179;-62
2024/02/11 12:27:09;;;;;;;5.65;4.22;;;16.70;64.50;;;;;;5052705;28;20218;-61
2024/02/11 12:29:35;;;;;;;6.22;3.65;;;16.70;64.60;;;;;;5051793;28;20544;-61
2024/02/11 12:32:03;;;;;;;4.85;3.92;;;16.70;64.50;;;;;;5053044;28;20642;-61
2024/02/11 12:34:29;;;;;;;8.38;4.75;;;16.70;64.50;;;;;;5051517;28;20182;-62